Hauptseite
METAR-TAF:

METAR-TAF

Flughäfen :

Heeresflugplatz Niederstetten

Niederstetten, Deutschland

Breite: 49-24N, Länge: 009-58E, Höhe: 468 m

Beobachtung

Neuester Wetterbericht von vor 1 Stunde und 22 Minuten, um 06:20 UTC
Wind 10 kt aus West
Temperatur 15°C
Luftfeuchtigkeit 67%
Luftdruck 1022 hPa
Sichtweite 10 km oder mehr
Durchbrochene Bewölkung in der Höhe von 27000 ft

METAR: ETHN 140620Z 26010KT 9999 BKN270 15/09 Q1022 BLU+

Zeit: 09:42 (07:42 UTC)


TAF: fehlend

Wetterbeobachtungen und Prognosen von mehr als 4000 Flughäfen (METAR und TAF Bericht).

Die verfügbaren Stationen werden durch gelbe und rote Markierungen auf der Karte dargestellt.

Führen Sie die Maus auf sie, um den Namen der Station zu sehen.

Darauf klicken, um die Beobachtung von Wetterbeobachtungen und Prognosen zu sehen.

Um die Karte zu ändern : klicken Sie auf den grünen Tasten mit einem schwarzen Kreuz Zum Vergrößern, auf den grünen Button mit einem Gedankenstrich zu verkleinern, oder auf die grünen Pfeile für benachbarte Karten.


METAR-TAF: